sensor_id;sensor_type;location;lat;lon;timestamp;pressure;altitude;pressure_sealevel;temperature;humidity
35248;BME280;21380;52.194;20.520;2024-02-21T00:01:54;100944.97;;;16.47;64.05
35248;BME280;21380;52.194;20.520;2024-02-21T00:04:19;100952.75;;;16.45;63.88
35248;BME280;21380;52.194;20.520;2024-02-21T00:06:45;100944.97;;;16.47;64.11
35248;BME280;21380;52.194;20.520;2024-02-21T00:09:11;100948.41;;;16.46;64.03
35248;BME280;21380;52.194;20.520;2024-02-21T00:11:37;100948.41;;;16.46;63.97
35248;BME280;21380;52.194;20.520;2024-02-21T00:14:03;100947.53;;;16.45;64.03
35248;BME280;21380;52.194;20.520;2024-02-21T00:16:29;100957.06;;;16.45;63.90
35248;BME280;21380;52.194;20.520;2024-02-21T00:18:54;100957.94;;;16.45;63.98
35248;BME280;21380;52.194;20.520;2024-02-21T00:21:20;100948.34;;;16.43;63.85
35248;BME280;21380;52.194;20.520;2024-02-21T00:23:46;100944.00;;;16.43;63.93
35248;BME280;21380;52.194;20.520;2024-02-21T00:26:12;100938.75;;;16.42;63.90
35248;BME280;21380;52.194;20.520;2024-02-21T00:28:39;100941.38;;;16.42;63.99
35248;BME280;21380;52.194;20.520;2024-02-21T00:31:04;100936.16;;;16.42;63.77
35248;BME280;21380;52.194;20.520;2024-02-21T00:33:30;100939.59;;;16.41;63.82
35248;BME280;21380;52.194;20.520;2024-02-21T00:35:56;100943.03;;;16.40;63.76
35248;BME280;21380;52.194;20.520;2024-02-21T00:38:22;100937.84;;;16.40;64.03
35248;BME280;21380;52.194;20.520;2024-02-21T00:40:48;100937.84;;;16.40;63.83
35248;BME280;21380;52.194;20.520;2024-02-21T00:43:13;100930.84;;;16.38;63.88
35248;BME280;21380;52.194;20.520;2024-02-21T00:45:39;100931.72;;;16.37;63.88
35248;BME280;21380;52.194;20.520;2024-02-21T00:48:05;100923.91;;;16.37;63.86
35248;BME280;21380;52.194;20.520;2024-02-21T00:50:31;100923.00;;;16.37;63.74
35248;BME280;21380;52.194;20.520;2024-02-21T00:52:57;100922.16;;;16.36;63.87
35248;BME280;21380;52.194;20.520;2024-02-21T00:55:23;100920.41;;;16.37;63.81
35248;BME280;21380;52.194;20.520;2024-02-21T00:57:48;100909.97;;;16.35;63.77
35248;BME280;21380;52.194;20.520;2024-02-21T01:00:15;100909.97;;;16.35;63.69
35248;BME280;21380;52.194;20.520;2024-02-21T01:02:40;100919.47;;;16.35;63.84
35248;BME280;21380;52.194;20.520;2024-02-21T01:05:07;100913.41;;;16.34;63.77
35248;BME280;21380;52.194;20.520;2024-02-21T01:07:32;100917.75;;;16.34;63.92
35248;BME280;21380;52.194;20.520;2024-02-21T01:09:58;100911.66;;;16.33;63.79
35248;BME280;21380;52.194;20.520;2024-02-21T01:12:24;100910.78;;;16.33;63.65
35248;BME280;21380;52.194;20.520;2024-02-21T01:14:50;100905.56;;;16.33;63.75
35248;BME280;21380;52.194;20.520;2024-02-21T01:17:16;100904.66;;;16.32;63.80
35248;BME280;21380;52.194;20.520;2024-02-21T01:19:42;100904.63;;;16.31;63.81
35248;BME280;21380;52.194;20.520;2024-02-21T01:22:07;100907.25;;;16.31;63.80
35248;BME280;21380;52.194;20.520;2024-02-21T01:24:33;100899.41;;;16.29;63.84
35248;BME280;21380;52.194;20.520;2024-02-21T01:26:59;100904.59;;;16.29;63.78
35248;BME280;21380;52.194;20.520;2024-02-21T01:29:25;100912.41;;;16.29;63.71
35248;BME280;21380;52.194;20.520;2024-02-21T01:31:50;100900.28;;;16.30;63.69
35248;BME280;21380;52.194;20.520;2024-02-21T01:34:16;100900.25;;;16.28;63.63
35248;BME280;21380;52.194;20.520;2024-02-21T01:36:42;100904.59;;;16.29;63.69
35248;BME280;21380;52.194;20.520;2024-02-21T01:39:08;100899.38;;;16.28;63.67
35248;BME280;21380;52.194;20.520;2024-02-21T01:41:33;100905.44;;;16.28;63.87
35248;BME280;21380;52.194;20.520;2024-02-21T01:43:59;100893.25;;;16.27;63.73
35248;BME280;21380;52.194;20.520;2024-02-21T01:46:25;100893.25;;;16.27;63.63
35248;BME280;21380;52.194;20.520;2024-02-21T01:48:56;100901.97;;;16.28;63.80
35248;BME280;21380;52.194;20.520;2024-02-21T01:51:22;100895.88;;;16.27;63.82
35248;BME280;21380;52.194;20.520;2024-02-21T01:53:48;100892.41;;;16.27;63.57
35248;BME280;21380;52.194;20.520;2024-02-21T01:56:15;100899.31;;;16.26;63.69
35248;BME280;21380;52.194;20.520;2024-02-21T01:58:42;100895.84;;;16.26;63.69
35248;BME280;21380;52.194;20.520;2024-02-21T02:01:08;100891.47;;;16.25;63.78
35248;BME280;21380;52.194;20.520;2024-02-21T02:03:35;100894.91;;;16.24;63.80
35248;BME280;21380;52.194;20.520;2024-02-21T02:06:00;100895.81;;;16.24;63.74
35248;BME280;21380;52.194;20.520;2024-02-21T02:08:27;100894.03;;;16.23;63.62
35248;BME280;21380;52.194;20.520;2024-02-21T02:10:53;100889.69;;;16.24;63.69
35248;BME280;21380;52.194;20.520;2024-02-21T02:13:19;100881.00;;;16.21;63.79
35248;BME280;21380;52.194;20.520;2024-02-21T02:15:45;100884.47;;;16.22;63.66
35248;BME280;21380;52.194;20.520;2024-02-21T02:18:12;100880.09;;;16.21;63.78
35248;BME280;21380;52.194;20.520;2024-02-21T02:20:38;100884.44;;;16.20;63.81
35248;BME280;21380;52.194;20.520;2024-02-21T02:23:09;100874.03;;;16.20;63.72
35248;BME280;21380;52.194;20.520;2024-02-21T02:25:35;100878.38;;;16.20;63.75
35248;BME280;21380;52.194;20.520;2024-02-21T02:28:03;100873.16;;;16.20;63.75
35248;BME280;21380;52.194;20.520;2024-02-21T02:30:29;100867.06;;;16.19;63.68
35248;BME280;21380;52.194;20.520;2024-02-21T02:32:57;100868.78;;;16.19;63.57
35248;BME280;21380;52.194;20.520;2024-02-21T02:35:23;100868.72;;;16.17;63.69
35248;BME280;21380;52.194;20.520;2024-02-21T02:37:49;100869.63;;;16.18;63.55
35248;BME280;21380;52.194;20.520;2024-02-21T02:40:15;100871.31;;;16.16;63.72
35248;BME280;21380;52.194;20.520;2024-02-21T02:42:42;100873.06;;;16.17;63.69
35248;BME280;21380;52.194;20.520;2024-02-21T02:45:07;100877.41;;;16.16;63.67
35248;BME280;21380;52.194;20.520;2024-02-21T02:47:33;100876.50;;;16.16;63.53
35248;BME280;21380;52.194;20.520;2024-02-21T02:50:00;100873.06;;;16.17;63.74
35248;BME280;21380;52.194;20.520;2024-02-21T02:52:26;100872.19;;;16.16;63.61
35248;BME280;21380;52.194;20.520;2024-02-21T02:54:51;100873.91;;;16.16;63.59
35248;BME280;21380;52.194;20.520;2024-02-21T02:57:18;100865.25;;;16.17;63.60
35248;BME280;21380;52.194;20.520;2024-02-21T02:59:48;100864.38;;;16.16;63.74
35248;BME280;21380;52.194;20.520;2024-02-21T03:02:13;100873.06;;;16.17;63.60
35248;BME280;21380;52.194;20.520;2024-02-21T03:04:39;100866.09;;;16.16;63.70
35248;BME280;21380;52.194;20.520;2024-02-21T03:07:05;100870.47;;;16.17;63.66
35248;BME280;21380;52.194;20.520;2024-02-21T03:09:31;100869.59;;;16.16;63.57
35248;BME280;21380;52.194;20.520;2024-02-21T03:11:57;100868.72;;;16.17;63.69
35248;BME280;21380;52.194;20.520;2024-02-21T03:14:30;100870.47;;;16.17;63.65
35248;BME280;21380;52.194;20.520;2024-02-21T03:16:56;100864.38;;;16.16;63.67
35248;BME280;21380;52.194;20.520;2024-02-21T03:19:22;100864.38;;;16.16;63.67
35248;BME280;21380;52.194;20.520;2024-02-21T03:21:51;100862.63;;;16.15;63.70
35248;BME280;21380;52.194;20.520;2024-02-21T03:24:18;100861.72;;;16.15;63.57
35248;BME280;21380;52.194;20.520;2024-02-21T03:26:44;100859.13;;;16.15;63.73
35248;BME280;21380;52.194;20.520;2024-02-21T03:29:10;100862.63;;;16.15;63.72
35248;BME280;21380;52.194;20.520;2024-02-21T03:31:37;100861.72;;;16.15;63.61
35248;BME280;21380;52.194;20.520;2024-02-21T03:34:03;100859.13;;;16.15;63.61
35248;BME280;21380;52.194;20.520;2024-02-21T03:36:29;100854.78;;;16.14;63.79
35248;BME280;21380;52.194;20.520;2024-02-21T03:38:54;100861.69;;;16.13;63.71
35248;BME280;21380;52.194;20.520;2024-02-21T03:41:21;100860.81;;;16.13;63.54
35248;BME280;21380;52.194;20.520;2024-02-21T03:43:47;100860.00;;;16.14;63.81
35248;BME280;21380;52.194;20.520;2024-02-21T03:46:14;100859.94;;;16.12;63.74
35248;BME280;21380;52.194;20.520;2024-02-21T03:48:39;100860.81;;;16.13;63.78
35248;BME280;21380;52.194;20.520;2024-02-21T03:51:05;100859.06;;;16.12;63.60
35248;BME280;21380;52.194;20.520;2024-02-21T03:53:31;100859.94;;;16.12;63.71
35248;BME280;21380;52.194;20.520;2024-02-21T03:55:57;100853.84;;;16.12;63.64
35248;BME280;21380;52.194;20.520;2024-02-21T03:58:28;100859.94;;;16.12;63.66
35248;BME280;21380;52.194;20.520;2024-02-21T04:00:54;100859.91;;;16.11;63.70
35248;BME280;21380;52.194;20.520;2024-02-21T04:03:19;100855.59;;;16.11;63.84
35248;BME280;21380;52.194;20.520;2024-02-21T04:05:46;100851.25;;;16.12;63.76
35248;BME280;21380;52.194;20.520;2024-02-21T04:08:12;100846.88;;;16.11;63.75
35248;BME280;21380;52.194;20.520;2024-02-21T04:10:38;100845.19;;;16.11;63.96
35248;BME280;21380;52.194;20.520;2024-02-21T04:13:04;100832.16;;;16.11;63.93
35248;BME280;21380;52.194;20.520;2024-02-21T04:15:30;100844.28;;;16.11;63.79
35248;BME280;21380;52.194;20.520;2024-02-21T04:17:56;100838.22;;;16.10;63.86
35248;BME280;21380;52.194;20.520;2024-02-21T04:20:22;100836.47;;;16.11;63.90
35248;BME280;21380;52.194;20.520;2024-02-21T04:22:47;100839.97;;;16.11;63.96
35248;BME280;21380;52.194;20.520;2024-02-21T04:25:14;100830.41;;;16.10;63.75
35248;BME280;21380;52.194;20.520;2024-02-21T04:27:39;100830.41;;;16.10;63.78
35248;BME280;21380;52.194;20.520;2024-02-21T04:30:06;100823.44;;;16.09;63.93
35248;BME280;21380;52.194;20.520;2024-02-21T04:32:32;100835.59;;;16.10;63.89
35248;BME280;21380;52.194;20.520;2024-02-21T04:34:58;100836.47;;;16.11;63.92
35248;BME280;21380;52.194;20.520;2024-02-21T04:37:24;100832.94;;;16.09;63.97
35248;BME280;21380;52.194;20.520;2024-02-21T04:39:50;100831.25;;;16.09;63.87
35248;BME280;21380;52.194;20.520;2024-02-21T04:42:16;100826.88;;;16.08;63.88
35248;BME280;21380;52.194;20.520;2024-02-21T04:44:42;100826.00;;;16.08;64.02
35248;BME280;21380;52.194;20.520;2024-02-21T04:47:08;100830.34;;;16.09;63.92
35248;BME280;21380;52.194;20.520;2024-02-21T04:49:34;100822.53;;;16.09;63.99
35248;BME280;21380;52.194;20.520;2024-02-21T04:52:00;100831.25;;;16.09;64.01
35248;BME280;21380;52.194;20.520;2024-02-21T04:54:26;100828.63;;;16.09;63.95
35248;BME280;21380;52.194;20.520;2024-02-21T04:56:51;100832.94;;;16.09;63.79
35248;BME280;21380;52.194;20.520;2024-02-21T04:59:17;100822.53;;;16.09;64.00
35248;BME280;21380;52.194;20.520;2024-02-21T05:01:43;100824.28;;;16.08;64.01
35248;BME280;21380;52.194;20.520;2024-02-21T05:04:09;100821.66;;;16.08;63.95
35248;BME280;21380;52.194;20.520;2024-02-21T05:06:38;100832.94;;;16.09;64.07
35248;BME280;21380;52.194;20.520;2024-02-21T05:09:04;100825.13;;;16.09;63.92
35248;BME280;21380;52.194;20.520;2024-02-21T05:11:31;100822.53;;;16.09;64.09
35248;BME280;21380;52.194;20.520;2024-02-21T05:13:57;100817.31;;;16.09;64.03
35248;BME280;21380;52.194;20.520;2024-02-21T05:16:22;100817.31;;;16.09;64.02
35248;BME280;21380;52.194;20.520;2024-02-21T05:18:48;100809.53;;;16.09;63.97
35248;BME280;21380;52.194;20.520;2024-02-21T05:21:14;100810.38;;;16.08;64.04
35248;BME280;21380;52.194;20.520;2024-02-21T05:23:40;100799.09;;;16.09;64.07
35248;BME280;21380;52.194;20.520;2024-02-21T05:26:06;100799.09;;;16.09;64.05
35248;BME280;21380;52.194;20.520;2024-02-21T05:28:32;100801.72;;;16.09;64.00
35248;BME280;21380;52.194;20.520;2024-02-21T05:30:57;100805.19;;;16.08;63.88
35248;BME280;21380;52.194;20.520;2024-02-21T05:33:24;100800.00;;;16.09;64.08
35248;BME280;21380;52.194;20.520;2024-02-21T05:35:50;100805.22;;;16.09;63.96
35248;BME280;21380;52.194;20.520;2024-02-21T05:38:16;100801.72;;;16.09;64.04
35248;BME280;21380;52.194;20.520;2024-02-21T05:40:42;100801.72;;;16.09;64.01
35248;BME280;21380;52.194;20.520;2024-02-21T05:43:08;100800.84;;;16.08;64.04
35248;BME280;21380;52.194;20.520;2024-02-21T05:45:34;100799.09;;;16.09;63.99
35248;BME280;21380;52.194;20.520;2024-02-21T05:48:00;100805.19;;;16.08;64.02
35248;BME280;21380;52.194;20.520;2024-02-21T05:50:26;100797.41;;;16.09;64.13
35248;BME280;21380;52.194;20.520;2024-02-21T05:52:55;100798.25;;;16.08;64.12
35248;BME280;21380;52.194;20.520;2024-02-21T05:55:21;100802.59;;;16.08;64.08
35248;BME280;21380;52.194;20.520;2024-02-21T05:57:48;100812.13;;;16.09;64.09
35248;BME280;21380;52.194;20.520;2024-02-21T06:00:14;100805.22;;;16.09;63.90
35248;BME280;21380;52.194;20.520;2024-02-21T06:02:41;100806.91;;;16.09;64.09
35248;BME280;21380;52.194;20.520;2024-02-21T06:05:07;100806.91;;;16.09;63.92
35248;BME280;21380;52.194;20.520;2024-02-21T06:07:33;100806.91;;;16.09;64.09
35248;BME280;21380;52.194;20.520;2024-02-21T06:10:02;100799.19;;;16.10;64.03
35248;BME280;21380;52.194;20.520;2024-02-21T06:12:28;100806.16;;;16.11;64.06
35248;BME280;21380;52.194;20.520;2024-02-21T06:14:54;100806.91;;;16.09;64.12
35248;BME280;21380;52.194;20.520;2024-02-21T06:17:20;100807.84;;;16.11;64.16
35248;BME280;21380;52.194;20.520;2024-02-21T06:19:45;100803.47;;;16.10;64.10
35248;BME280;21380;52.194;20.520;2024-02-21T06:22:12;100811.28;;;16.10;64.25
35248;BME280;21380;52.194;20.520;2024-02-21T06:24:37;100812.19;;;16.10;64.13
35248;BME280;21380;52.194;20.520;2024-02-21T06:27:04;100810.44;;;16.11;64.11
35248;BME280;21380;52.194;20.520;2024-02-21T06:29:31;100809.59;;;16.10;64.10
35248;BME280;21380;52.194;20.520;2024-02-21T06:31:57;100819.41;;;15.21;62.05
35248;BME280;21380;52.194;20.520;2024-02-21T06:34:23;100796.13;;;14.09;65.83
35248;BME280;21380;52.194;20.520;2024-02-21T06:36:50;100807.59;;;14.72;64.64
35248;BME280;21380;52.194;20.520;2024-02-21T06:39:15;100809.31;;;15.02;63.96
35248;BME280;21380;52.194;20.520;2024-02-21T06:41:42;100802.13;;;15.23;64.09
35248;BME280;21380;52.194;20.520;2024-02-21T06:44:07;100805.16;;;15.39;63.51
35248;BME280;21380;52.194;20.520;2024-02-21T06:46:34;100804.53;;;15.48;63.32
35248;BME280;21380;52.194;20.520;2024-02-21T06:49:00;100805.59;;;15.56;63.01
35248;BME280;21380;52.194;20.520;2024-02-21T06:51:27;100801.34;;;15.60;63.06
35248;BME280;21380;52.194;20.520;2024-02-21T06:53:53;100801.47;;;15.64;62.85
35248;BME280;21380;52.194;20.520;2024-02-21T06:56:19;100806.72;;;15.66;62.74
35248;BME280;21380;52.194;20.520;2024-02-21T06:58:45;100809.41;;;15.69;62.79
35248;BME280;21380;52.194;20.520;2024-02-21T07:01:11;100796.47;;;15.72;62.81
35248;BME280;21380;52.194;20.520;2024-02-21T07:03:37;100798.22;;;15.73;62.70
35248;BME280;21380;52.194;20.520;2024-02-21T07:06:03;100806.97;;;15.75;62.80
35248;BME280;21380;52.194;20.520;2024-02-21T07:08:29;100798.28;;;15.76;62.62
35248;BME280;21380;52.194;20.520;2024-02-21T07:10:55;100800.06;;;15.77;62.85
35248;BME280;21380;52.194;20.520;2024-02-21T07:13:21;100793.19;;;15.79;62.74
35248;BME280;21380;52.194;20.520;2024-02-21T07:15:48;100784.53;;;15.80;62.65
35248;BME280;21380;52.194;20.520;2024-02-21T07:18:14;100778.50;;;15.81;62.79
35248;BME280;21380;52.194;20.520;2024-02-21T07:20:40;100781.16;;;15.83;62.69
35248;BME280;21380;52.194;20.520;2024-02-21T07:23:07;100773.38;;;15.83;62.83
35248;BME280;21380;52.194;20.520;2024-02-21T07:25:33;100769.03;;;15.83;62.71
35248;BME280;21380;52.194;20.520;2024-02-21T07:27:59;100771.69;;;15.85;62.83
35248;BME280;21380;52.194;20.520;2024-02-21T07:30:25;100773.41;;;15.86;62.76
35248;BME280;21380;52.194;20.520;2024-02-21T07:32:50;100771.69;;;15.85;62.68
35248;BME280;21380;52.194;20.520;2024-02-21T07:35:19;100772.59;;;15.87;62.87
35248;BME280;21380;52.194;20.520;2024-02-21T07:37:45;100763.06;;;15.87;62.72
35248;BME280;21380;52.194;20.520;2024-02-21T07:40:15;100759.59;;;15.88;62.72
35248;BME280;21380;52.194;20.520;2024-02-21T07:42:41;100757.00;;;15.88;62.74
35248;BME280;21380;52.194;20.520;2024-02-21T07:45:08;100758.78;;;15.89;62.97
35248;BME280;21380;52.194;20.520;2024-02-21T07:47:34;100755.34;;;15.91;62.53
35248;BME280;21380;52.194;20.520;2024-02-21T07:50:00;100755.34;;;15.91;62.82
35248;BME280;21380;52.194;20.520;2024-02-21T07:52:26;100752.00;;;15.96;63.07
35248;BME280;21380;52.194;20.520;2024-02-21T07:54:52;100749.41;;;15.96;62.89
35248;BME280;21380;52.194;20.520;2024-02-21T07:57:18;100746.84;;;15.98;62.98
35248;BME280;21380;52.194;20.520;2024-02-21T07:59:44;100739.88;;;15.97;63.00
35248;BME280;21380;52.194;20.520;2024-02-21T08:02:09;100742.47;;;15.97;62.77
35248;BME280;21380;52.194;20.520;2024-02-21T08:04:36;100738.13;;;15.97;62.89
35248;BME280;21380;52.194;20.520;2024-02-21T08:07:02;100743.34;;;15.97;62.97
35248;BME280;21380;52.194;20.520;2024-02-21T08:09:29;100743.34;;;15.97;63.02
35248;BME280;21380;52.194;20.520;2024-02-21T08:11:55;100746.84;;;15.98;62.91
35248;BME280;21380;52.194;20.520;2024-02-21T08:14:21;100738.19;;;15.99;62.90
35248;BME280;21380;52.194;20.520;2024-02-21T08:16:47;100733.00;;;15.99;62.88
35248;BME280;21380;52.194;20.520;2024-02-21T08:19:14;100728.66;;;15.99;62.89
35248;BME280;21380;52.194;20.520;2024-02-21T08:21:39;100727.78;;;15.99;62.86
35248;BME280;21380;52.194;20.520;2024-02-21T08:24:05;100726.91;;;16.00;63.08
35248;BME280;21380;52.194;20.520;2024-02-21T08:26:31;100725.22;;;16.00;62.98
35248;BME280;21380;52.194;20.520;2024-02-21T08:28:57;100731.28;;;16.01;62.87
35248;BME280;21380;52.194;20.520;2024-02-21T08:31:26;100726.97;;;16.01;62.82
35248;BME280;21380;52.194;20.520;2024-02-21T08:33:58;100720.88;;;16.01;63.07
35248;BME280;21380;52.194;20.520;2024-02-21T08:36:28;100726.06;;;16.01;63.00
35248;BME280;21380;52.194;20.520;2024-02-21T08:38:55;100724.38;;;16.01;62.92
35248;BME280;21380;52.194;20.520;2024-02-21T08:41:20;100714.81;;;16.02;62.95
35248;BME280;21380;52.194;20.520;2024-02-21T08:43:49;100721.78;;;16.01;63.03
35248;BME280;21380;52.194;20.520;2024-02-21T08:46:15;100713.97;;;16.01;62.87
35248;BME280;21380;52.194;20.520;2024-02-21T08:48:41;100717.44;;;16.02;63.02
35248;BME280;21380;52.194;20.520;2024-02-21T08:51:07;100708.75;;;16.01;63.00
35248;BME280;21380;52.194;20.520;2024-02-21T08:53:32;100710.53;;;16.02;62.80
35248;BME280;21380;52.194;20.520;2024-02-21T08:55:58;100700.13;;;16.02;62.96
35248;BME280;21380;52.194;20.520;2024-02-21T08:58:24;100697.50;;;16.02;62.98
35248;BME280;21380;52.194;20.520;2024-02-21T09:00:52;100690.56;;;16.03;62.94
35248;BME280;21380;52.194;20.520;2024-02-21T09:03:18;100687.09;;;16.02;62.88
35248;BME280;21380;52.194;20.520;2024-02-21T09:05:45;100695.81;;;16.04;63.02
35248;BME280;21380;52.194;20.520;2024-02-21T09:08:12;100693.19;;;16.04;62.97
35248;BME280;21380;52.194;20.520;2024-02-21T09:10:39;100698.41;;;16.04;62.90
35248;BME280;21380;52.194;20.520;2024-02-21T09:13:05;100694.09;;;16.05;62.98
35248;BME280;21380;52.194;20.520;2024-02-21T09:15:31;100696.69;;;16.05;62.88
35248;BME280;21380;52.194;20.520;2024-02-21T09:17:57;100701.03;;;16.06;62.97
35248;BME280;21380;52.194;20.520;2024-02-21T09:20:23;100701.03;;;16.06;63.04
35248;BME280;21380;52.194;20.520;2024-02-21T09:22:49;100700.16;;;16.05;63.19
35248;BME280;21380;52.194;20.520;2024-02-21T09:25:14;100698.44;;;16.06;62.99
35248;BME280;21380;52.194;20.520;2024-02-21T09:27:40;100701.94;;;16.07;63.04
35248;BME280;21380;52.194;20.520;2024-02-21T09:30:06;100697.56;;;16.05;63.23
35248;BME280;21380;52.194;20.520;2024-02-21T09:32:32;100700.16;;;16.05;63.11
35248;BME280;21380;52.194;20.520;2024-02-21T09:34:58;100698.44;;;16.06;62.95
35248;BME280;21380;52.194;20.520;2024-02-21T09:37:24;100697.56;;;16.05;63.13
35248;BME280;21380;52.194;20.520;2024-02-21T09:39:50;100681.78;;;15.98;62.96
35248;BME280;21380;52.194;20.520;2024-02-21T09:42:19;100690.63;;;16.06;62.92
35248;BME280;21380;52.194;20.520;2024-02-21T09:44:45;100686.28;;;16.05;63.02
35248;BME280;21380;52.194;20.520;2024-02-21T09:47:18;100684.56;;;16.05;63.06
35248;BME280;21380;52.194;20.520;2024-02-21T09:49:44;100685.41;;;16.06;63.20
35248;BME280;21380;52.194;20.520;2024-02-21T09:52:11;100678.50;;;16.07;63.07
35248;BME280;21380;52.194;20.520;2024-02-21T09:54:39;100685.41;;;16.06;63.12
35248;BME280;21380;52.194;20.520;2024-02-21T09:57:06;100678.50;;;16.07;62.96
35248;BME280;21380;52.194;20.520;2024-02-21T09:59:32;100681.13;;;16.07;63.02
35248;BME280;21380;52.194;20.520;2024-02-21T10:01:58;100668.09;;;16.07;63.08
35248;BME280;21380;52.194;20.520;2024-02-21T10:04:27;100668.94;;;16.05;62.91
35248;BME280;21380;52.194;20.520;2024-02-21T10:06:53;100668.09;;;16.07;63.07
35248;BME280;21380;52.194;20.520;2024-02-21T10:09:26;100671.56;;;16.07;63.23
35248;BME280;21380;52.194;20.520;2024-02-21T10:11:55;100664.66;;;16.08;63.15
35248;BME280;21380;52.194;20.520;2024-02-21T10:14:21;100662.91;;;16.08;63.12
35248;BME280;21380;52.194;20.520;2024-02-21T10:16:48;100658.56;;;16.07;63.16
35248;BME280;21380;52.194;20.520;2024-02-21T10:19:17;100653.38;;;16.09;63.14
35248;BME280;21380;52.194;20.520;2024-02-21T10:21:43;100651.66;;;16.08;63.14
35248;BME280;21380;52.194;20.520;2024-02-21T10:24:11;100648.16;;;16.07;63.21
35248;BME280;21380;52.194;20.520;2024-02-21T10:26:37;100654.25;;;16.08;63.10
35248;BME280;21380;52.194;20.520;2024-02-21T10:29:03;100649.91;;;16.08;63.08
35248;BME280;21380;52.194;20.520;2024-02-21T10:31:30;100651.66;;;16.08;63.15
35248;BME280;21380;52.194;20.520;2024-02-21T10:34:01;100649.03;;;16.08;63.01
35248;BME280;21380;52.194;20.520;2024-02-21T10:36:31;100644.72;;;16.08;63.08
35248;BME280;21380;52.194;20.520;2024-02-21T10:38:56;100644.72;;;16.08;63.10
35248;BME280;21380;52.194;20.520;2024-02-21T10:41:23;100637.75;;;16.09;63.08
35248;BME280;21380;52.194;20.520;2024-02-21T10:43:49;100633.44;;;16.08;63.12
35248;BME280;21380;52.194;20.520;2024-02-21T10:46:15;100629.97;;;16.09;63.08
35248;BME280;21380;52.194;20.520;2024-02-21T10:48:44;100625.63;;;16.08;63.22
35248;BME280;21380;52.194;20.520;2024-02-21T10:51:22;100616.91;;;16.07;62.97
35248;BME280;21380;52.194;20.520;2024-02-21T10:58:44;100618.69;;;16.08;63.22
35248;BME280;21380;52.194;20.520;2024-02-21T11:01:12;100614.41;;;16.10;62.99
35248;BME280;21380;52.194;20.520;2024-02-21T11:03:43;100610.03;;;16.09;63.18
35248;BME280;21380;52.194;20.520;2024-02-21T11:06:10;100606.53;;;16.09;63.13
35248;BME280;21380;52.194;20.520;2024-02-21T11:08:36;100603.06;;;16.08;63.12
35248;BME280;21380;52.194;20.520;2024-02-21T11:11:02;100600.50;;;16.10;63.08
35248;BME280;21380;52.194;20.520;2024-02-21T11:13:30;100597.00;;;16.08;63.08
35248;BME280;21380;52.194;20.520;2024-02-21T11:16:10;100598.78;;;16.10;63.19
35248;BME280;21380;52.194;20.520;2024-02-21T11:18:39;100592.69;;;16.10;63.08
35248;BME280;21380;52.194;20.520;2024-02-21T11:21:05;100588.31;;;16.09;63.17
35248;BME280;21380;52.194;20.520;2024-02-21T11:23:31;100590.91;;;16.09;63.10
35248;BME280;21380;52.194;20.520;2024-02-21T11:26:10;100588.28;;;16.07;63.15
35248;BME280;21380;52.194;20.520;2024-02-21T11:28:36;100585.72;;;16.09;63.09
35248;BME280;21380;52.194;20.520;2024-02-21T11:31:15;100588.31;;;16.09;63.04
35248;BME280;21380;52.194;20.520;2024-02-21T11:33:41;100574.44;;;16.08;63.16
35248;BME280;21380;52.194;20.520;2024-02-21T11:36:08;100577.03;;;16.08;63.01
35248;BME280;21380;52.194;20.520;2024-02-21T11:38:34;100584.00;;;16.08;63.12
35248;BME280;21380;52.194;20.520;2024-02-21T11:41:00;100582.25;;;16.08;63.10
35248;BME280;21380;52.194;20.520;2024-02-21T11:43:25;100577.91;;;16.09;62.98
35248;BME280;21380;52.194;20.520;2024-02-21T11:46:00;100571.84;;;16.08;63.10
35248;BME280;21380;52.194;20.520;2024-02-21T11:48:26;100572.72;;;16.09;63.18
35248;BME280;21380;52.194;20.520;2024-02-21T11:50:53;100570.09;;;16.09;63.17
35248;BME280;21380;52.194;20.520;2024-02-21T11:53:20;100564.91;;;16.09;62.96
35248;BME280;21380;52.194;20.520;2024-02-21T11:55:46;100568.38;;;16.08;63.17
35248;BME280;21380;52.194;20.520;2024-02-21T11:58:12;100568.38;;;16.08;63.19
35248;BME280;21380;52.194;20.520;2024-02-21T12:00:38;100561.44;;;16.08;63.05
35248;BME280;21380;52.194;20.520;2024-02-21T12:03:07;100557.97;;;16.08;63.10
35248;BME280;21380;52.194;20.520;2024-02-21T12:05:33;100556.22;;;16.08;63.16
35248;BME280;21380;52.194;20.520;2024-02-21T12:07:59;100559.69;;;16.09;63.19
35248;BME280;21380;52.194;20.520;2024-02-21T12:10:25;100549.25;;;16.07;63.16
35248;BME280;21380;52.194;20.520;2024-02-21T12:13:06;100551.88;;;16.09;63.11
35248;BME280;21380;52.194;20.520;2024-02-21T12:15:32;100544.97;;;16.08;63.07
35248;BME280;21380;52.194;20.520;2024-02-21T12:17:58;100550.16;;;16.08;63.25
35248;BME280;21380;52.194;20.520;2024-02-21T12:20:25;100554.50;;;16.09;63.20
35248;BME280;21380;52.194;20.520;2024-02-21T12:22:53;100538.84;;;16.07;63.19
35248;BME280;21380;52.194;20.520;2024-02-21T12:25:20;100543.19;;;16.07;63.03
35248;BME280;21380;52.194;20.520;2024-02-21T12:27:51;100539.75;;;16.08;63.23
35248;BME280;21380;52.194;20.520;2024-02-21T12:30:18;100528.44;;;16.07;63.19
35248;BME280;21380;52.194;20.520;2024-02-21T12:32:44;100527.59;;;16.07;63.04
35248;BME280;21380;52.194;20.520;2024-02-21T12:35:10;100520.63;;;16.07;63.17
35248;BME280;21380;52.194;20.520;2024-02-21T12:37:36;100512.00;;;16.08;63.08
35248;BME280;21380;52.194;20.520;2024-02-21T12:40:09;100513.72;;;16.08;63.15
35248;BME280;21380;52.194;20.520;2024-02-21T12:42:36;100516.34;;;16.08;62.88